createdAt,value
2019-02-24T00:01:02.312Z,103133.69
2019-02-24T00:03:33.126Z,103131.99
2019-02-24T00:06:07.049Z,103130.25
2019-02-24T00:08:38.847Z,103124.77
2019-02-24T00:11:11.040Z,103133.59
2019-02-24T00:13:43.316Z,103131.03
2019-02-24T00:16:13.976Z,103120.12
2019-02-24T00:18:46.772Z,103121.17
2019-02-24T00:21:17.329Z,103121.12
2019-02-24T00:23:47.785Z,103123.17
2019-02-24T00:26:19.142Z,103123.17
2019-02-24T00:28:49.669Z,103129.86
2019-02-24T00:31:21.747Z,103127.78
2019-02-24T00:33:53.166Z,103130.67
2019-02-24T00:36:26.464Z,103127.31
2019-02-24T00:38:56.965Z,103118.38
2019-02-24T00:41:29.368Z,103118.84
2019-02-24T00:43:59.847Z,103117.14
2019-02-24T00:46:30.230Z,103116.09
2019-02-24T00:49:00.967Z,103104.90
2019-02-24T00:51:34.698Z,103104.80
2019-02-24T00:54:07.304Z,103095.58
2019-02-24T00:56:39.086Z,103085.52
2019-02-24T00:59:10.407Z,103078.64
2019-02-24T01:01:41.024Z,103075.42
2019-02-24T01:04:13.285Z,103072.30
2019-02-24T01:06:43.897Z,103069.38
2019-02-24T01:09:14.552Z,103069.28
2019-02-24T01:11:46.415Z,103074.25
2019-02-24T01:14:16.950Z,103067.92
2019-02-24T01:16:49.326Z,103071.56
2019-02-24T01:19:19.975Z,103065.56
2019-02-24T01:21:51.924Z,103075.06
2019-02-24T01:24:22.760Z,103078.75
2019-02-24T01:26:53.688Z,103071.15
2019-02-24T01:29:24.461Z,103068.55
2019-02-24T01:31:55.226Z,103072.69
2019-02-24T01:34:25.814Z,103069.38
2019-02-24T01:36:56.368Z,103068.86
2019-02-24T01:39:29.131Z,103067.69
2019-02-24T01:41:59.752Z,103071.80
2019-02-24T01:44:31.498Z,103077.03
2019-02-24T01:47:01.916Z,103082.62
2019-02-24T01:49:34.238Z,103074.92
2019-02-24T01:52:05.096Z,103066.05
2019-02-24T01:54:36.390Z,103066.70
2019-02-24T01:57:10.004Z,103058.48
2019-02-24T01:59:43.332Z,103049.38
2019-02-24T02:02:14.727Z,103053.14
2019-02-24T02:04:46.032Z,103042.84
2019-02-24T02:07:17.605Z,103042.04
2019-02-24T02:09:48.096Z,103045.78
2019-02-24T02:12:22.119Z,103047.01
2019-02-24T02:14:54.306Z,103046.48
2019-02-24T02:17:25.164Z,103046.34
2019-02-24T02:19:55.577Z,103048.77
2019-02-24T02:22:26.256Z,103043.04
2019-02-24T02:24:57.090Z,103041.77
2019-02-24T02:27:28.396Z,103040.16
2019-02-24T02:30:01.504Z,103037.86
2019-02-24T02:32:31.824Z,103035.53
2019-02-24T02:35:03.921Z,103025.05
2019-02-24T02:37:36.198Z,103023.48
2019-02-24T02:40:06.874Z,103022.58
2019-02-24T02:42:37.431Z,103019.93
2019-02-24T02:45:10.215Z,103016.02
2019-02-24T02:47:41.568Z,103016.30
2019-02-24T02:50:12.809Z,103022.72
2019-02-24T02:52:43.310Z,103018.79
2019-02-24T02:55:13.728Z,103017.57
2019-02-24T02:57:44.209Z,103016.67
2019-02-24T03:00:32.145Z,103023.52
2019-02-24T03:03:02.575Z,103023.57
2019-02-24T03:05:34.743Z,103015.45
2019-02-24T03:08:12.950Z,103022.72
2019-02-24T03:10:43.389Z,103020.92
2019-02-24T03:13:13.662Z,103024.69
2019-02-24T03:15:44.041Z,103019.23
2019-02-24T03:18:14.572Z,103022.72
2019-02-24T03:20:45.208Z,103016.63
2019-02-24T03:23:17.354Z,103018.33
2019-02-24T03:25:47.814Z,103012.42
2019-02-24T03:28:19.877Z,103012.00
2019-02-24T03:30:52.983Z,103011.53
2019-02-24T03:33:25.035Z,103016.42
2019-02-24T03:35:56.493Z,103012.08
2019-02-24T03:38:28.397Z,103007.79
2019-02-24T03:40:58.603Z,103012.41
2019-02-24T03:43:29.048Z,103007.69
2019-02-24T03:46:00.367Z,103016.41
2019-02-24T03:48:31.845Z,103011.73
2019-02-24T03:51:02.164Z,103012.91
2019-02-24T03:53:33.514Z,103009.19
2019-02-24T03:56:04.865Z,103017.46
2019-02-24T03:58:35.386Z,103017.93
2019-02-24T04:01:05.812Z,103012.83
2019-02-24T04:03:36.139Z,103023.66
2019-02-24T04:06:08.318Z,103024.92
2019-02-24T04:08:40.791Z,103030.08
2019-02-24T04:11:12.044Z,103026.95
2019-02-24T04:13:43.288Z,103031.45
2019-02-24T04:16:15.409Z,103036.00
2019-02-24T04:18:45.694Z,103040.48
2019-02-24T04:21:15.968Z,103037.88
2019-02-24T04:23:47.591Z,103043.31
2019-02-24T04:26:18.108Z,103042.64
2019-02-24T04:28:50.843Z,103046.36
2019-02-24T04:31:21.196Z,103040.84
2019-02-24T04:33:52.320Z,103040.09
2019-02-24T04:36:23.823Z,103032.52
2019-02-24T04:38:55.737Z,103032.86
2019-02-24T04:41:27.847Z,103029.58
2019-02-24T04:43:58.218Z,103031.44
2019-02-24T04:46:29.736Z,103031.67
2019-02-24T04:48:59.981Z,103034.11
2019-02-24T04:51:31.699Z,103034.09
2019-02-24T04:54:03.017Z,103041.44
2019-02-24T04:56:33.219Z,103041.20
2019-02-24T04:59:03.672Z,103047.36
2019-02-24T05:01:34.854Z,103049.44
2019-02-24T05:04:06.966Z,103046.73
2019-02-24T05:06:37.378Z,103039.42
2019-02-24T05:09:09.791Z,103035.44
2019-02-24T05:11:40.079Z,103036.72
2019-02-24T05:14:10.520Z,103040.17
2019-02-24T05:16:42.221Z,103037.99
2019-02-24T05:19:14.341Z,103040.81
2019-02-24T05:21:45.699Z,103038.59
2019-02-24T05:24:16.025Z,103040.34
2019-02-24T05:26:47.276Z,103040.84
2019-02-24T05:29:17.905Z,103039.75
2019-02-24T05:31:48.443Z,103038.39
2019-02-24T05:34:19.212Z,103041.19
2019-02-24T05:36:51.449Z,103045.17
2019-02-24T05:39:23.772Z,103044.43
2019-02-24T05:41:54.050Z,103039.34
2019-02-24T05:44:24.396Z,103043.43
2019-02-24T05:46:54.772Z,103031.87
2019-02-24T05:49:26.774Z,103035.89
2019-02-24T05:51:58.663Z,103037.55
2019-02-24T05:54:28.849Z,103039.56
2019-02-24T05:56:59.279Z,103041.73
2019-02-24T05:59:31.443Z,103043.69
2019-02-24T06:02:01.602Z,103053.71
2019-02-24T06:04:32.022Z,103052.33
2019-02-24T06:07:03.475Z,103056.31
2019-02-24T06:09:33.834Z,103059.08
2019-02-24T06:12:04.442Z,103056.74
2019-02-24T06:14:35.279Z,103055.30
2019-02-24T06:17:06.536Z,103058.64
2019-02-24T06:19:38.636Z,103054.67
2019-02-24T06:22:09.070Z,103050.89
2019-02-24T06:24:39.491Z,103051.42
2019-02-24T06:27:10.100Z,103048.41
2019-02-24T06:29:40.648Z,103055.36
2019-02-24T06:32:11.134Z,103054.14
2019-02-24T06:34:42.073Z,103059.81
2019-02-24T06:37:14.447Z,103062.95
2019-02-24T06:39:46.748Z,103059.50
2019-02-24T06:42:18.215Z,103056.45
2019-02-24T06:44:49.045Z,103056.42
2019-02-24T06:47:19.580Z,103053.72
2019-02-24T06:49:49.839Z,103051.67
2019-02-24T06:52:23.562Z,103047.58
2019-02-24T06:54:54.743Z,103047.02
2019-02-24T06:57:25.976Z,103047.13
2019-02-24T06:59:57.145Z,103047.02
2019-02-24T07:02:27.695Z,103051.20
2019-02-24T07:04:57.786Z,103054.73
2019-02-24T07:07:28.234Z,103055.75
2019-02-24T07:09:58.417Z,103056.24
2019-02-24T07:12:28.611Z,103057.86
2019-02-24T07:14:58.838Z,103059.48
2019-02-24T07:17:29.454Z,103049.54
2019-02-24T07:20:00.889Z,103046.02
2019-02-24T07:22:32.211Z,103044.64
2019-02-24T07:25:02.610Z,103038.50
2019-02-24T07:27:34.764Z,103038.23
2019-02-24T07:30:05.885Z,103035.42
2019-02-24T07:32:36.634Z,103030.67
2019-02-24T07:35:07.261Z,103036.45
2019-02-24T07:37:38.326Z,103034.88
2019-02-24T07:40:09.674Z,103028.47
2019-02-24T07:42:41.260Z,103022.84
2019-02-24T07:45:13.290Z,103018.11
2019-02-24T07:47:43.715Z,103021.12
2019-02-24T07:50:14.989Z,103005.16
2019-02-24T07:52:48.277Z,103009.89
2019-02-24T07:55:19.125Z,103003.90
2019-02-24T07:57:50.577Z,103003.02
2019-02-24T08:00:20.708Z,102997.77
2019-02-24T08:02:51.299Z,102995.97
2019-02-24T08:05:21.512Z,102991.78
2019-02-24T08:07:52.168Z,102986.86
2019-02-24T08:10:23.825Z,102984.59
2019-02-24T08:12:54.664Z,102993.28
2019-02-24T08:15:26.353Z,102998.52
2019-02-24T08:17:56.638Z,103001.08
2019-02-24T08:20:28.710Z,103005.22
2019-02-24T08:23:00.203Z,103008.91
2019-02-24T08:25:30.855Z,103022.30
2019-02-24T08:28:02.498Z,103025.55
2019-02-24T08:30:41.212Z,103021.46
2019-02-24T08:33:05.611Z,103024.51
2019-02-24T08:35:37.379Z,103038.88
2019-02-24T08:38:09.646Z,103047.73
2019-02-24T08:40:39.972Z,103044.80
2019-02-24T08:43:10.304Z,103048.73
2019-02-24T08:45:40.629Z,103053.84
2019-02-24T08:48:11.164Z,103058.22
2019-02-24T08:50:41.491Z,103050.33
2019-02-24T08:53:12.047Z,103051.11
2019-02-24T08:55:42.557Z,103047.29
2019-02-24T08:58:14.147Z,103046.77
2019-02-24T09:00:51.041Z,103044.38
2019-02-24T09:03:20.707Z,103038.55
2019-02-24T09:05:51.442Z,103045.00
2019-02-24T09:08:22.938Z,103038.06
2019-02-24T09:10:54.557Z,103037.05
2019-02-24T09:13:24.894Z,103030.21
2019-02-24T09:15:56.298Z,103028.24
2019-02-24T09:18:27.691Z,103031.62
2019-02-24T09:20:59.034Z,103032.65
2019-02-24T09:23:29.472Z,103027.20
2019-02-24T09:25:59.762Z,103027.10
2019-02-24T09:28:32.120Z,103034.53
2019-02-24T09:31:03.654Z,103038.30
2019-02-24T09:33:36.211Z,103043.25
2019-02-24T09:36:06.662Z,103049.27
2019-02-24T09:38:37.173Z,103044.64
2019-02-24T09:41:09.553Z,103041.19
2019-02-24T09:43:39.797Z,103036.69
2019-02-24T09:46:13.281Z,103048.03
2019-02-24T09:48:43.609Z,103052.19
2019-02-24T09:51:14.244Z,103041.61
2019-02-24T09:53:44.572Z,103039.63
2019-02-24T09:56:16.412Z,103045.91
2019-02-24T09:58:46.456Z,103044.41
2019-02-24T10:01:16.898Z,103041.16
2019-02-24T10:03:47.333Z,103034.09
2019-02-24T10:06:20.718Z,103047.73
2019-02-24T10:08:53.397Z,103056.95
2019-02-24T10:11:23.833Z,103056.38
2019-02-24T10:13:54.363Z,103066.09
2019-02-24T10:16:24.793Z,103072.38
2019-02-24T10:18:55.159Z,103076.64
2019-02-24T10:21:25.756Z,103074.95
2019-02-24T10:23:56.495Z,103071.73
2019-02-24T10:26:28.039Z,103081.10
2019-02-24T10:28:58.569Z,103083.47
2019-02-24T10:31:30.961Z,103081.14
2019-02-24T10:34:02.746Z,103072.70
2019-02-24T10:36:34.116Z,103070.06
2019-02-24T10:39:05.223Z,103080.72
2019-02-24T10:41:35.651Z,103084.09
2019-02-24T10:44:06.902Z,103076.81
2019-02-24T10:46:38.569Z,103071.24
2019-02-24T10:49:09.903Z,103075.44
2019-02-24T10:51:40.453Z,103075.18
2019-02-24T10:54:11.792Z,103074.88
2019-02-24T10:56:43.021Z,103067.70
2019-02-24T10:59:16.923Z,103068.66
2019-02-24T11:01:47.957Z,103066.83
2019-02-24T11:04:19.865Z,103065.31
2019-02-24T11:06:50.294Z,103072.83
2019-02-24T11:09:23.693Z,103081.35
2019-02-24T11:11:54.248Z,103082.11
2019-02-24T11:14:24.512Z,103076.56
2019-02-24T11:16:54.800Z,103073.17
2019-02-24T11:19:26.232Z,103073.49
2019-02-24T11:21:57.031Z,103066.86
2019-02-24T11:24:27.339Z,103065.86
2019-02-24T11:26:58.603Z,103060.25
2019-02-24T11:29:29.345Z,103055.02
2019-02-24T11:32:01.447Z,103059.50
2019-02-24T11:34:31.908Z,103053.88
2019-02-24T11:37:03.490Z,103046.97
2019-02-24T11:39:33.879Z,103046.44
2019-02-24T11:42:04.002Z,103054.47
2019-02-24T11:44:35.075Z,103058.70
2019-02-24T11:47:05.681Z,103053.98
2019-02-24T11:49:37.270Z,103061.50
2019-02-24T11:52:07.489Z,103053.91
2019-02-24T11:54:37.815Z,103049.44
2019-02-24T11:57:07.984Z,103052.36
2019-02-24T11:59:41.009Z,103041.90
2019-02-24T12:02:12.441Z,103042.20
2019-02-24T12:04:44.097Z,103042.52
2019-02-24T12:07:14.548Z,103037.19
2019-02-24T12:09:44.936Z,103037.61
2019-02-24T12:12:15.113Z,103026.98
2019-02-24T12:14:45.403Z,103029.25
2019-02-24T12:17:15.849Z,103036.03
2019-02-24T12:19:46.298Z,103030.70
2019-02-24T12:22:20.532Z,103039.44
2019-02-24T12:24:54.025Z,103036.49
2019-02-24T12:27:24.524Z,103031.97
2019-02-24T12:29:57.645Z,103034.58
2019-02-24T12:32:28.201Z,103026.13
2019-02-24T12:34:58.704Z,103025.45
2019-02-24T12:37:29.161Z,103028.67
2019-02-24T12:39:59.657Z,103030.67
2019-02-24T12:42:30.375Z,103037.52
2019-02-24T12:45:01.775Z,103032.89
2019-02-24T12:47:33.729Z,103041.86
2019-02-24T12:50:05.914Z,103032.92
2019-02-24T12:52:39.598Z,103036.03
2019-02-24T12:55:13.231Z,103033.69
2019-02-24T12:57:43.689Z,103043.97
2019-02-24T13:00:16.895Z,103044.23
2019-02-24T13:02:48.695Z,103050.67
2019-02-24T13:05:19.228Z,103047.49
2019-02-24T13:07:50.703Z,103040.79
2019-02-24T13:10:23.158Z,103036.30
2019-02-24T13:12:55.153Z,103039.86
2019-02-24T13:15:27.498Z,103031.28
2019-02-24T13:18:00.591Z,103031.13
2019-02-24T13:20:32.864Z,103026.64
2019-02-24T13:23:05.341Z,103015.11
2019-02-24T13:25:35.792Z,103014.34
2019-02-24T13:28:06.258Z,103011.08
2019-02-24T13:30:36.520Z,103008.81
2019-02-24T13:33:07.573Z,103006.86
2019-02-24T13:35:40.741Z,103003.72
2019-02-24T13:38:12.586Z,103002.13
2019-02-24T13:40:48.790Z,102995.34
2019-02-24T13:43:20.173Z,102998.50
2019-02-24T13:45:50.473Z,102998.04
2019-02-24T13:48:20.599Z,103007.94
2019-02-24T13:50:53.904Z,103003.11
2019-02-24T13:53:25.628Z,103002.22
2019-02-24T13:55:56.445Z,102999.47
2019-02-24T13:58:26.831Z,102994.98
2019-02-24T14:00:57.506Z,102996.95
2019-02-24T14:03:28.186Z,102994.30
2019-02-24T14:05:58.845Z,102996.33
2019-02-24T14:08:30.495Z,102998.89
2019-02-24T14:11:00.839Z,103002.28
2019-02-24T14:13:32.497Z,103001.74
2019-02-24T14:16:04.042Z,103003.05
2019-02-24T14:18:34.401Z,103009.03
2019-02-24T14:21:04.558Z,102999.86
2019-02-24T14:23:34.819Z,103002.04
2019-02-24T14:26:05.419Z,103001.92
2019-02-24T14:28:36.830Z,102989.72
2019-02-24T14:31:07.631Z,102989.94
2019-02-24T14:33:37.719Z,102989.18
2019-02-24T14:36:09.397Z,102980.72
2019-02-24T14:38:40.149Z,102976.17
2019-02-24T14:41:11.539Z,102974.62
2019-02-24T14:43:41.904Z,102981.14
2019-02-24T14:46:12.277Z,102992.29
2019-02-24T14:48:44.712Z,102992.87
2019-02-24T14:51:16.107Z,102992.95
2019-02-24T14:53:46.433Z,102988.76
2019-02-24T14:56:16.863Z,102987.88
2019-02-24T14:58:48.419Z,102988.50
2019-02-24T15:01:19.906Z,102977.81
2019-02-24T15:03:50.618Z,102977.64
2019-02-24T15:06:21.298Z,102979.37
2019-02-24T15:08:51.823Z,102974.04
2019-02-24T15:11:23.143Z,102975.54
2019-02-24T15:13:54.293Z,102985.47
2019-02-24T15:16:24.901Z,102986.97
2019-02-24T15:18:55.759Z,102987.55
2019-02-24T15:21:26.097Z,102989.92
2019-02-24T15:23:58.089Z,102994.30
2019-02-24T15:26:29.502Z,102990.08
2019-02-24T15:29:00.958Z,102989.66
2019-02-24T15:31:31.414Z,102993.16
2019-02-24T15:34:02.917Z,102993.44
2019-02-24T15:36:35.306Z,102997.52
2019-02-24T15:39:07.747Z,102996.48
2019-02-24T15:41:37.885Z,103001.88
2019-02-24T15:44:10.119Z,102998.95
2019-02-24T15:46:41.753Z,102999.44
2019-02-24T15:49:12.056Z,102995.69
2019-02-24T15:51:42.534Z,102993.61
2019-02-24T15:54:13.100Z,102996.78
2019-02-24T15:56:43.373Z,102998.11
2019-02-24T15:59:16.014Z,102994.62
2019-02-24T16:01:49.296Z,102999.53
2019-02-24T16:04:21.964Z,103003.06
2019-02-24T16:06:52.326Z,103007.98
2019-02-24T16:09:25.916Z,103014.53
2019-02-24T16:11:56.486Z,103005.63
2019-02-24T16:14:28.780Z,103013.92
2019-02-24T16:16:59.390Z,103010.98
2019-02-24T16:19:30.667Z,103010.23
2019-02-24T16:22:01.606Z,103005.13
2019-02-24T16:24:32.066Z,103010.41
2019-02-24T16:27:02.576Z,103018.40
2019-02-24T16:29:33.995Z,103020.28
2019-02-24T16:32:06.371Z,103020.42
2019-02-24T16:34:38.029Z,103015.77
2019-02-24T16:37:11.942Z,103015.44
2019-02-24T16:39:45.020Z,103011.59
2019-02-24T16:42:15.641Z,103021.07
2019-02-24T16:44:47.963Z,103017.65
2019-02-24T16:47:21.055Z,103024.31
2019-02-24T16:49:51.770Z,103019.29
2019-02-24T16:52:21.999Z,103009.91
2019-02-24T16:54:55.326Z,103009.20
2019-02-24T16:57:28.003Z,103005.44
2019-02-24T16:59:58.869Z,103004.30
2019-02-24T17:02:32.972Z,103010.00
2019-02-24T17:05:04.160Z,103011.83
2019-02-24T17:07:35.196Z,103018.38
2019-02-24T17:10:06.480Z,103020.13
2019-02-24T17:12:37.848Z,103018.88
2019-02-24T17:15:11.551Z,103022.77
2019-02-24T17:17:43.870Z,103025.38
2019-02-24T17:20:15.824Z,103024.96
2019-02-24T17:22:48.681Z,103022.36
2019-02-24T17:25:19.219Z,103026.30
2019-02-24T17:27:50.886Z,103028.02
2019-02-24T17:30:23.702Z,103029.73
2019-02-24T17:32:54.483Z,103034.06
2019-02-24T17:35:26.492Z,103031.91
2019-02-24T17:37:59.259Z,103029.75
2019-02-24T17:40:29.786Z,103038.35
2019-02-24T17:43:02.796Z,103037.49
2019-02-24T17:45:35.478Z,103044.78
2019-02-24T17:48:07.130Z,103034.86
2019-02-24T17:50:39.403Z,103033.54
2019-02-24T17:53:11.467Z,103039.55
2019-02-24T17:55:43.634Z,103034.80
2019-02-24T17:58:14.057Z,103042.94
2019-02-24T18:00:50.015Z,103054.16
2019-02-24T18:03:20.444Z,103048.95
2019-02-24T18:05:52.438Z,103048.50
2019-02-24T18:08:28.287Z,103041.16
2019-02-24T18:10:56.231Z,103046.70
2019-02-24T18:13:26.552Z,103041.92
2019-02-24T18:16:00.003Z,103034.53
2019-02-24T18:18:30.960Z,103040.52
2019-02-24T18:21:01.933Z,103036.63
2019-02-24T18:23:33.771Z,103035.22
2019-02-24T18:26:08.409Z,103030.80
2019-02-24T18:28:44.994Z,103029.88
2019-02-24T18:31:16.883Z,103025.98
2019-02-24T18:33:48.971Z,103033.25
2019-02-24T18:36:22.142Z,103028.93
2019-02-24T18:38:53.420Z,103030.47
2019-02-24T18:41:23.843Z,103029.61
2019-02-24T18:43:58.441Z,103027.88
2019-02-24T18:46:28.866Z,103023.53
2019-02-24T18:49:00.310Z,103024.77
2019-02-24T18:51:32.536Z,103030.27
2019-02-24T18:54:03.953Z,103037.95
2019-02-24T18:56:34.593Z,103040.19
2019-02-24T18:59:05.219Z,103038.05
2019-02-24T19:01:36.344Z,103026.36
2019-02-24T19:04:07.416Z,103027.53
2019-02-24T19:06:39.322Z,103030.06
2019-02-24T19:09:10.542Z,103031.76
2019-02-24T19:11:41.682Z,103029.51
2019-02-24T19:14:14.767Z,103032.42
2019-02-24T19:16:45.078Z,103032.77
2019-02-24T19:19:25.175Z,103033.09
2019-02-24T19:21:50.461Z,103032.58
2019-02-24T19:24:21.012Z,103032.08
2019-02-24T19:26:53.880Z,103041.58
2019-02-24T19:29:24.676Z,103046.63
2019-02-24T19:31:56.499Z,103047.88
2019-02-24T19:34:27.310Z,103050.89
2019-02-24T19:36:58.956Z,103043.06
2019-02-24T19:39:31.175Z,103045.15
2019-02-24T19:42:01.748Z,103037.38
2019-02-24T19:44:34.218Z,103044.53
2019-02-24T19:47:04.648Z,103031.13
2019-02-24T19:49:35.137Z,103030.70
2019-02-24T19:52:07.009Z,103028.58
2019-02-24T19:54:40.316Z,103027.26
2019-02-24T19:57:12.476Z,103028.23
2019-02-24T19:59:45.316Z,103036.52
2019-02-24T20:02:16.814Z,103032.56
2019-02-24T20:04:47.675Z,103032.06
2019-02-24T20:07:19.582Z,103036.70
2019-02-24T20:09:50.092Z,103031.69
2019-02-24T20:12:20.156Z,103035.88
2019-02-24T20:14:51.133Z,103035.36
2019-02-24T20:17:21.570Z,103040.42
2019-02-24T20:19:52.027Z,103044.66
2019-02-24T20:22:22.485Z,103042.52
2019-02-24T20:24:53.050Z,103060.50
2019-02-24T20:27:23.558Z,103057.20
2019-02-24T20:29:55.125Z,103065.82
2019-02-24T20:32:26.184Z,103073.45
2019-02-24T20:34:56.903Z,103070.79
2019-02-24T20:37:27.363Z,103075.78
2019-02-24T20:39:59.602Z,103083.45
2019-02-24T20:42:30.679Z,103080.73
2019-02-24T20:45:03.240Z,103082.41
2019-02-24T20:47:34.689Z,103083.18
2019-02-24T20:50:05.939Z,103078.00
2019-02-24T20:52:36.703Z,103072.36
2019-02-24T20:55:09.864Z,103071.42
2019-02-24T20:57:40.904Z,103077.30
2019-02-24T21:00:23.108Z,103083.16
2019-02-24T21:02:54.307Z,103078.38
2019-02-24T21:05:24.849Z,103075.33
2019-02-24T21:07:55.678Z,103078.23
2019-02-24T21:10:26.093Z,103067.44
2019-02-24T21:12:56.581Z,103069.60
2019-02-24T21:15:27.293Z,103074.73
2019-02-24T21:17:57.695Z,103072.08
2019-02-24T21:20:30.255Z,103071.17
2019-02-24T21:23:01.093Z,103065.91
2019-02-24T21:25:31.956Z,103074.51
2019-02-24T21:28:03.952Z,103078.05
2019-02-24T21:30:35.334Z,103082.34
2019-02-24T21:33:08.027Z,103078.73
2019-02-24T21:35:38.270Z,103082.12
2019-02-24T21:38:09.064Z,103088.95
2019-02-24T21:40:40.310Z,103085.91
2019-02-24T21:43:11.082Z,103088.39
2019-02-24T21:45:41.846Z,103093.09
2019-02-24T21:48:13.175Z,103099.41
2019-02-24T21:50:43.955Z,103108.94
2019-02-24T21:53:14.444Z,103115.83
2019-02-24T21:55:46.088Z,103107.23
2019-02-24T21:58:16.302Z,103109.40
2019-02-24T22:00:46.812Z,103105.80
2019-02-24T22:03:19.370Z,103098.73
2019-02-24T22:05:50.198Z,103105.33
2019-02-24T22:08:20.507Z,103112.78
2019-02-24T22:10:50.970Z,103114.83
2019-02-24T22:13:21.431Z,103118.98
2019-02-24T22:15:52.221Z,103113.36
2019-02-24T22:18:24.703Z,103117.48
2019-02-24T22:20:56.132Z,103117.73
2019-02-24T22:23:27.665Z,103112.97
2019-02-24T22:26:00.946Z,103105.24
2019-02-24T22:28:31.212Z,103113.17
2019-02-24T22:31:02.871Z,103106.59
2019-02-24T22:33:33.288Z,103105.29
2019-02-24T22:36:06.297Z,103103.94
2019-02-24T22:38:36.769Z,103099.54
2019-02-24T22:41:08.902Z,103095.70
2019-02-24T22:43:40.862Z,103103.91
2019-02-24T22:46:12.418Z,103101.30
2019-02-24T22:48:42.951Z,103090.77
2019-02-24T22:51:22.595Z,103089.30
2019-02-24T22:53:54.875Z,103094.25
2019-02-24T22:56:26.422Z,103089.95
2019-02-24T22:58:57.532Z,103091.92
2019-02-24T23:01:31.885Z,103090.46
2019-02-24T23:04:11.604Z,103094.27
2019-02-24T23:06:41.960Z,103088.58
2019-02-24T23:09:16.523Z,103092.31
2019-02-24T23:11:47.326Z,103092.77
2019-02-24T23:14:19.598Z,103088.05
2019-02-24T23:16:49.975Z,103084.09
2019-02-24T23:19:21.579Z,103076.59
2019-02-24T23:21:53.954Z,103069.34
2019-02-24T23:24:26.926Z,103072.36
2019-02-24T23:26:57.181Z,103073.53
2019-02-24T23:29:29.336Z,103074.66
2019-02-24T23:32:01.205Z,103080.18
2019-02-24T23:34:31.474Z,103075.95
2019-02-24T23:37:02.476Z,103066.19
2019-02-24T23:39:34.380Z,103054.95
2019-02-24T23:42:05.920Z,103064.80
2019-02-24T23:44:37.055Z,103065.03
2019-02-24T23:47:07.823Z,103064.84
2019-02-24T23:49:38.211Z,103060.11
2019-02-24T23:52:08.745Z,103061.08
2019-02-24T23:54:41.364Z,103058.06
2019-02-24T23:57:12.779Z,103060.66
2019-02-24T23:59:45.770Z,103066.93
